Overview Statistics Trail Chart Weather Telemetry Raw packets
 

This is the latest recevied weather packets stored in our database for station/object LRTR. If no packets are shown the sender has not sent any weather packets the latest 10 day(s).

<< 15 16 17 18 19 20 21 >>
Time Temp. Humidity Pressure Rain* Wind** Luminosity Snow
1777366985 17.22° C 32% 1019 hPa - - - -
1777366085 16.11° C 36% 1019 hPa - - - -
1777365185 16.11° C 36% 1019 hPa - - - -
1777364285 15° C 42% 1019 hPa - - - -
1777363385 15° C 42% 1019 hPa - - - -
1777362485 13.89° C 48% 1019 hPa - - - -
1777361585 13.89° C 48% 1019 hPa - - - -
1777360685 12.22° C 47% 1019 hPa - - - -
1777359785 12.22° C 47% 1019 hPa - - - -
1777358885 11.11° C 50% 1019 hPa - - - -
1777358007 11.11° C 50% 1019 hPa - - - -
1777357090 10° C 62% 1019 hPa - - - -
1777356185 10° C 62% 1019 hPa - - - -
1777355310 7.78° C 66% 1019 hPa - - - -
1777354385 7.78° C 66% 1019 hPa - - - -
1777353504 5° C 81% 1019 hPa - - - -
1777352595 5° C 81% 1019 hPa - - - -
1777351684 2.78° C 87% 1019 hPa - - - -
1777350859 2.78° C 87% 1019 hPa - - - -
1777349885 2.22° C 87% 1019 hPa - - - -
1777348985 2.22° C 87% 1019 hPa - - - -
1777348085 1.11° C 93% 1019 hPa - - - -
1777347185 1.11° C 93% 1019 hPa - - - -
1777346285 2.78° C 87% 1019 hPa - - - -
1777345389 2.78° C 87% 1019 hPa - - - -

* Rain since midnight (hover to see other rain measurements)
** Current wind speed in m/s (hover to see current wind gust speed)